createdAt,value
2024-05-09T00:01:29.888Z,66.83
2024-05-09T00:03:29.896Z,66.53
2024-05-09T00:05:29.967Z,66.76
2024-05-09T00:07:31.119Z,67.08
2024-05-09T00:09:29.809Z,67.38
2024-05-09T00:11:29.932Z,67.55
2024-05-09T00:13:29.848Z,67.51
2024-05-09T00:15:29.878Z,67.59
2024-05-09T00:17:30.006Z,67.54
2024-05-09T00:19:29.888Z,67.32
2024-05-09T00:21:29.859Z,67.24
2024-05-09T00:23:29.918Z,67.17
2024-05-09T00:25:29.848Z,67.25
2024-05-09T00:27:29.854Z,67.34
2024-05-09T00:29:29.956Z,67.33
2024-05-09T00:32:30.000Z,67.46
2024-05-09T00:34:30.002Z,67.84
2024-05-09T00:36:29.920Z,67.79
2024-05-09T00:38:30.057Z,67.66
2024-05-09T00:40:37.701Z,67.58
2024-05-09T00:41:29.966Z,67.59
2024-05-09T00:43:29.944Z,67.28
2024-05-09T00:45:29.905Z,67.28
2024-05-09T00:47:30.106Z,67.42
2024-05-09T00:49:30.052Z,67.25
2024-05-09T00:51:29.973Z,67.23
2024-05-09T00:53:30.041Z,67.43
2024-05-09T00:55:29.940Z,67.30
2024-05-09T00:57:29.976Z,67.13
2024-05-09T00:59:30.225Z,67.02
2024-05-09T01:02:30.044Z,66.90
2024-05-09T01:04:30.028Z,66.86
2024-05-09T01:06:29.955Z,66.48
2024-05-09T01:08:30.077Z,66.06
2024-05-09T01:10:34.181Z,66.03
2024-05-09T01:13:29.969Z,66.13
2024-05-09T01:15:30.013Z,66.15
2024-05-09T01:17:30.230Z,66.09
2024-05-09T01:19:30.131Z,65.78
2024-05-09T01:21:31.302Z,65.58
2024-05-09T01:23:30.124Z,65.08
2024-05-09T01:25:30.049Z,65.00
2024-05-09T01:27:30.005Z,64.72
2024-05-09T01:29:30.101Z,64.85
2024-05-09T01:31:30.069Z,64.54
2024-05-09T01:33:30.295Z,64.37
2024-05-09T01:35:30.049Z,64.24
2024-05-09T01:37:30.040Z,64.26
2024-05-09T01:39:30.035Z,64.33
2024-05-09T01:43:30.080Z,64.09
2024-05-09T01:46:30.089Z,63.99
2024-05-09T01:48:30.181Z,64.03
2024-05-09T01:50:38.069Z,63.70
2024-05-09T01:52:30.090Z,63.62
2024-05-09T01:54:30.096Z,63.66
2024-05-09T01:56:30.164Z,63.89
2024-05-09T01:58:31.659Z,63.75
2024-05-09T02:00:38.162Z,63.90
2024-05-09T02:02:30.233Z,64.00
2024-05-09T02:04:30.236Z,64.24
2024-05-09T02:06:30.108Z,64.04
2024-05-09T02:08:30.208Z,63.99
2024-05-09T02:10:32.790Z,64.17
2024-05-09T02:12:30.180Z,64.25
2024-05-09T02:14:30.200Z,64.23
2024-05-09T02:16:30.159Z,64.12
2024-05-09T02:18:30.181Z,64.31
2024-05-09T02:20:35.819Z,64.29
2024-05-09T02:24:30.153Z,64.34
2024-05-09T02:26:30.246Z,64.46
2024-05-09T02:29:30.238Z,64.07
2024-05-09T02:31:30.183Z,64.34
2024-05-09T02:33:30.435Z,64.40
2024-05-09T02:35:31.606Z,64.78
2024-05-09T02:37:30.187Z,64.91
2024-05-09T02:39:30.217Z,64.89
2024-05-09T02:41:30.304Z,64.95
2024-05-09T02:43:30.231Z,64.62
2024-05-09T02:45:30.257Z,64.47
2024-05-09T02:47:30.453Z,64.63
2024-05-09T02:49:30.274Z,64.42
2024-05-09T02:51:30.251Z,64.75
2024-05-09T02:54:30.236Z,64.61
2024-05-09T02:56:30.362Z,64.52
2024-05-09T02:58:30.279Z,64.57
2024-05-09T03:00:37.934Z,64.55
2024-05-09T03:01:30.370Z,64.71
2024-05-09T03:04:30.333Z,64.61
2024-05-09T03:06:30.304Z,64.42
2024-05-09T03:08:30.323Z,64.38
2024-05-09T03:10:35.682Z,64.34
2024-05-09T03:12:31.666Z,64.39
2024-05-09T03:14:30.335Z,64.52
2024-05-09T03:16:30.291Z,64.38
2024-05-09T03:18:30.398Z,64.23
2024-05-09T03:21:30.306Z,63.98
2024-05-09T03:23:30.347Z,64.07
2024-05-09T03:25:30.361Z,64.19
2024-05-09T03:27:30.345Z,64.21
2024-05-09T03:29:30.482Z,64.36
2024-05-09T03:31:30.330Z,64.22
2024-05-09T03:34:30.343Z,64.65
2024-05-09T03:36:30.344Z,64.68
2024-05-09T03:38:30.488Z,64.54
2024-05-09T03:40:31.168Z,64.64
2024-05-09T03:42:30.353Z,65.02
2024-05-09T03:44:30.554Z,65.16
2024-05-09T03:46:30.364Z,65.06
2024-05-09T03:48:30.509Z,64.78
2024-05-09T03:50:35.236Z,65.07
2024-05-09T03:52:30.383Z,65.30
2024-05-09T03:54:30.381Z,65.38
2024-05-09T03:56:30.471Z,65.25
2024-05-09T03:58:30.419Z,65.43
2024-05-09T04:00:36.853Z,65.81
2024-05-09T04:02:30.525Z,65.55
2024-05-09T04:04:30.537Z,65.56
2024-05-09T04:06:30.437Z,65.39
2024-05-09T04:08:30.423Z,65.29
2024-05-09T04:10:33.364Z,65.40
2024-05-09T04:12:30.613Z,65.61
2024-05-09T04:14:30.524Z,65.85
2024-05-09T04:16:30.423Z,65.63
2024-05-09T04:18:30.503Z,65.75
2024-05-09T04:21:30.438Z,65.61
2024-05-09T04:23:30.562Z,65.77
2024-05-09T04:25:30.475Z,65.70
2024-05-09T04:27:30.492Z,65.45
2024-05-09T04:29:30.644Z,65.53
2024-05-09T04:31:30.478Z,65.47
2024-05-09T04:33:30.927Z,65.35
2024-05-09T04:35:30.599Z,65.37
2024-05-09T04:39:30.508Z,65.51
2024-05-09T04:41:30.594Z,65.52
2024-05-09T04:43:30.523Z,64.96
2024-05-09T04:45:30.647Z,65.01
2024-05-09T04:47:30.709Z,65.15
2024-05-09T04:49:30.664Z,64.93
2024-05-09T04:51:30.553Z,64.79
2024-05-09T04:53:30.636Z,64.17
2024-05-09T04:55:30.599Z,64.12
2024-05-09T04:57:30.567Z,64.29
2024-05-09T04:59:30.670Z,64.14
2024-05-09T05:01:30.660Z,64.33
2024-05-09T05:03:32.338Z,64.32
2024-05-09T05:05:30.639Z,64.21
2024-05-09T05:07:30.549Z,64.25
2024-05-09T05:09:30.573Z,63.87
2024-05-09T05:11:30.802Z,63.75
2024-05-09T05:13:30.575Z,63.73
2024-05-09T05:16:30.619Z,63.70
2024-05-09T05:18:30.697Z,63.63
2024-05-09T05:20:33.690Z,63.71
2024-05-09T05:22:30.636Z,63.86
2024-05-09T05:24:30.630Z,64.10
2024-05-09T05:26:30.625Z,64.59
2024-05-09T05:28:30.600Z,64.81
2024-05-09T05:30:34.559Z,64.81
2024-05-09T05:33:30.870Z,64.43
2024-05-09T05:35:30.764Z,64.39
2024-05-09T05:37:30.672Z,64.59
2024-05-09T05:39:30.648Z,64.43
2024-05-09T05:41:30.699Z,64.26
2024-05-09T05:43:30.677Z,63.93
2024-05-09T05:46:30.653Z,63.63
2024-05-09T05:49:30.683Z,64.01
2024-05-09T05:51:30.668Z,64.25
2024-05-09T05:53:30.746Z,64.25
2024-05-09T05:55:30.705Z,64.01
2024-05-09T05:57:30.706Z,64.21
2024-05-09T05:59:30.699Z,64.49
2024-05-09T06:01:30.818Z,64.78
2024-05-09T06:03:30.790Z,64.67
2024-05-09T06:05:30.766Z,65.26
2024-05-09T06:07:30.712Z,65.19
2024-05-09T06:09:30.722Z,64.98
2024-05-09T06:11:30.860Z,64.80
2024-05-09T06:13:30.771Z,64.50
2024-05-09T06:15:30.713Z,64.33
2024-05-09T06:18:31.039Z,64.51
2024-05-09T06:20:35.893Z,64.57
2024-05-09T06:22:30.764Z,64.71
2024-05-09T06:24:30.784Z,64.70
2024-05-09T06:26:30.903Z,64.27
2024-05-09T06:28:30.759Z,64.23
2024-05-09T06:30:38.163Z,63.79
2024-05-09T06:32:30.933Z,63.68
2024-05-09T06:34:30.879Z,63.28
2024-05-09T06:37:30.845Z,62.64
2024-05-09T06:39:30.845Z,62.74
2024-05-09T06:41:30.971Z,62.70
2024-05-09T06:43:30.815Z,62.96
2024-05-09T06:45:30.826Z,62.79
2024-05-09T06:47:31.056Z,61.88
2024-05-09T06:49:30.989Z,62.06
2024-05-09T06:51:30.803Z,61.25
2024-05-09T06:53:30.882Z,61.20
2024-05-09T06:55:30.855Z,60.98
2024-05-09T06:57:30.877Z,60.88
2024-05-09T06:59:30.913Z,60.77
2024-05-09T07:01:30.927Z,60.79
2024-05-09T07:03:30.994Z,60.56
2024-05-09T07:05:30.918Z,60.84
2024-05-09T07:07:30.888Z,60.66
2024-05-09T07:09:30.862Z,60.69
2024-05-09T07:12:31.056Z,60.43
2024-05-09T07:14:31.324Z,59.74
2024-05-09T07:16:30.910Z,60.32
2024-05-09T07:18:31.126Z,59.93
2024-05-09T07:20:34.632Z,60.38
2024-05-09T07:22:30.916Z,60.82
2024-05-09T07:24:30.905Z,60.81
2024-05-09T07:26:30.994Z,59.75
2024-05-09T07:27:53.763Z,60.06
2024-05-09T07:29:31.042Z,60.07
2024-05-09T07:31:32.325Z,60.00
2024-05-09T07:33:31.099Z,60.16
2024-05-09T07:35:31.360Z,60.29
2024-05-09T07:37:30.937Z,58.96
2024-05-09T07:39:31.006Z,59.02
2024-05-09T07:41:31.086Z,59.72
2024-05-09T07:43:30.959Z,59.50
2024-05-09T07:45:47.454Z,59.17
2024-05-09T07:48:57.318Z,59.31
2024-05-09T07:50:01.243Z,59.51
2024-05-09T07:53:08.610Z,59.37
2024-05-09T07:53:32.658Z,59.19
2024-05-09T07:53:40.460Z,59.20
2024-05-09T07:54:31.196Z,59.56
2024-05-09T07:56:31.754Z,60.18
2024-05-09T07:58:30.981Z,59.15
2024-05-09T08:00:32.142Z,58.90
2024-05-09T08:02:31.212Z,58.36
2024-05-09T08:04:31.101Z,57.91
2024-05-09T08:06:31.096Z,57.53
2024-05-09T08:08:32.470Z,58.34
2024-05-09T08:10:31.133Z,58.35
2024-05-09T08:13:31.033Z,58.20
2024-05-09T08:15:31.131Z,58.75
2024-05-09T08:17:31.194Z,57.92
2024-05-09T08:19:31.109Z,58.11
2024-05-09T08:21:31.170Z,57.24
2024-05-09T08:23:31.048Z,58.08
2024-05-09T08:25:31.081Z,58.08
2024-05-09T08:27:31.145Z,57.75
2024-05-09T08:29:31.067Z,56.87
2024-05-09T08:31:31.276Z,56.69
2024-05-09T08:33:31.397Z,56.48
2024-05-09T08:35:31.133Z,56.84
2024-05-09T08:37:36.639Z,57.14
2024-05-09T08:39:31.162Z,57.77
2024-05-09T08:42:31.127Z,57.26
2024-05-09T08:44:31.102Z,57.97
2024-05-09T08:46:31.155Z,57.66
2024-05-09T08:48:31.372Z,57.36
2024-05-09T08:50:37.930Z,56.78
2024-05-09T08:52:31.136Z,56.96
2024-05-09T08:54:31.196Z,57.24
2024-05-09T08:56:31.173Z,57.14
2024-05-09T08:58:31.182Z,57.67
2024-05-09T09:00:36.780Z,57.44
2024-05-09T09:02:31.227Z,56.85
2024-05-09T09:04:31.306Z,56.34
2024-05-09T09:06:31.263Z,56.87
2024-05-09T09:08:31.164Z,56.35
2024-05-09T09:10:32.724Z,56.86
2024-05-09T09:12:31.195Z,56.35
2024-05-09T09:14:31.232Z,55.81
2024-05-09T09:16:31.246Z,56.14
2024-05-09T09:18:31.528Z,56.32
2024-05-09T09:20:36.369Z,56.28
2024-05-09T09:22:32.652Z,55.78
2024-05-09T09:24:31.275Z,55.77
2024-05-09T09:26:31.247Z,55.45
2024-05-09T09:28:31.214Z,54.70
2024-05-09T09:30:36.626Z,54.75
2024-05-09T09:32:31.350Z,55.26
2024-05-09T09:34:31.885Z,55.78
2024-05-09T09:36:31.285Z,56.04
2024-05-09T09:38:31.258Z,56.08
2024-05-09T09:40:33.037Z,55.72
2024-05-09T09:42:31.318Z,55.78
2024-05-09T09:44:31.288Z,55.48
2024-05-09T09:46:31.404Z,55.29
2024-05-09T09:48:31.447Z,54.85
2024-05-09T09:50:34.580Z,55.31
2024-05-09T09:52:31.373Z,55.31
2024-05-09T09:54:31.325Z,55.12
2024-05-09T09:56:31.280Z,54.17
2024-05-09T09:58:31.372Z,53.77
2024-05-09T10:00:33.407Z,53.74
2024-05-09T10:02:31.466Z,53.23
2024-05-09T10:04:31.356Z,53.34
2024-05-09T10:06:31.347Z,53.33
2024-05-09T10:08:31.352Z,53.18
2024-05-09T10:10:32.991Z,53.41
2024-05-09T10:12:31.461Z,53.61
2024-05-09T10:14:31.331Z,52.85
2024-05-09T10:16:31.427Z,53.09
2024-05-09T10:18:32.751Z,52.90
2024-05-09T10:20:32.834Z,51.46
2024-05-09T10:22:31.350Z,51.36
2024-05-09T10:24:31.376Z,50.90
2024-05-09T10:26:31.404Z,51.11
2024-05-09T10:28:31.452Z,50.66
2024-05-09T10:30:36.066Z,48.98
2024-05-09T10:34:31.493Z,47.93
2024-05-09T10:36:33.209Z,47.99
2024-05-09T10:38:31.379Z,48.32
2024-05-09T10:40:32.141Z,48.27
2024-05-09T10:42:31.469Z,48.95
2024-05-09T10:44:31.428Z,49.19
2024-05-09T10:46:31.465Z,48.59
2024-05-09T10:48:31.547Z,48.32
2024-05-09T10:50:34.347Z,48.55
2024-05-09T10:52:31.485Z,48.84
2024-05-09T10:54:31.504Z,48.87
2024-05-09T10:56:31.472Z,49.05
2024-05-09T10:58:31.438Z,48.91
2024-05-09T11:00:35.775Z,49.38
2024-05-09T11:02:31.694Z,48.81
2024-05-09T11:04:31.561Z,49.12
2024-05-09T11:06:31.524Z,49.62
2024-05-09T11:08:31.516Z,48.81
2024-05-09T11:10:34.159Z,47.82
2024-05-09T11:12:31.490Z,48.03
2024-05-09T11:14:31.511Z,46.81
2024-05-09T11:16:31.555Z,47.09
2024-05-09T11:18:35.020Z,47.44
2024-05-09T11:20:34.677Z,47.62
2024-05-09T11:22:31.514Z,46.49
2024-05-09T11:24:31.562Z,45.79
2024-05-09T11:26:31.547Z,45.71
2024-05-09T11:28:31.557Z,46.23
2024-05-09T11:30:32.399Z,46.26
2024-05-09T11:32:31.664Z,47.14
2024-05-09T11:34:31.691Z,47.50
2024-05-09T11:36:31.624Z,47.49
2024-05-09T11:38:31.540Z,47.56
2024-05-09T11:40:34.391Z,47.09
2024-05-09T11:42:31.612Z,47.61
2024-05-09T11:44:31.596Z,47.17
2024-05-09T11:46:31.614Z,47.39
2024-05-09T11:48:32.004Z,47.71
2024-05-09T11:50:35.866Z,47.75
2024-05-09T11:52:31.613Z,48.23
2024-05-09T11:54:31.678Z,48.36
2024-05-09T11:56:31.591Z,48.14
2024-05-09T11:58:31.596Z,48.01
2024-05-09T12:00:36.701Z,47.90
2024-05-09T12:02:31.719Z,48.00
2024-05-09T12:04:31.755Z,48.72
2024-05-09T12:06:31.631Z,47.84
2024-05-09T12:08:31.629Z,46.45
2024-05-09T12:10:34.445Z,47.07
2024-05-09T12:12:33.481Z,47.00
2024-05-09T12:14:31.636Z,45.60
2024-05-09T12:16:32.040Z,45.91
2024-05-09T12:18:31.763Z,46.32
2024-05-09T12:20:37.133Z,46.23
2024-05-09T12:22:31.724Z,46.88
2024-05-09T12:24:31.723Z,45.89
2024-05-09T12:26:31.665Z,45.70
2024-05-09T12:28:31.753Z,45.93
2024-05-09T12:30:37.108Z,46.00
2024-05-09T12:32:31.731Z,46.34
2024-05-09T12:34:31.806Z,45.92
2024-05-09T12:36:31.752Z,44.80
2024-05-09T12:38:31.759Z,43.56
2024-05-09T12:40:36.482Z,44.06
2024-05-09T12:42:33.721Z,44.84
2024-05-09T12:44:31.718Z,43.71
2024-05-09T12:46:31.808Z,43.60
2024-05-09T12:48:31.957Z,44.45
2024-05-09T12:50:33.908Z,45.11
2024-05-09T12:52:31.759Z,44.50
2024-05-09T12:54:31.781Z,43.65
2024-05-09T12:56:31.781Z,44.10
2024-05-09T12:58:31.769Z,45.22
2024-05-09T13:00:34.141Z,43.29
2024-05-09T13:03:31.946Z,44.31
2024-05-09T13:05:32.068Z,44.77
2024-05-09T13:07:31.796Z,44.77
2024-05-09T13:09:31.842Z,43.80
2024-05-09T13:11:31.937Z,44.26
2024-05-09T13:13:31.791Z,44.76
2024-05-09T13:15:31.838Z,45.30
2024-05-09T13:17:31.916Z,45.02
2024-05-09T13:19:31.885Z,43.64
2024-05-09T13:21:31.848Z,43.54
2024-05-09T13:23:31.822Z,43.58
2024-05-09T13:25:31.862Z,43.79
2024-05-09T13:27:31.895Z,43.80
2024-05-09T13:29:31.858Z,44.04
2024-05-09T13:31:31.886Z,44.51
2024-05-09T13:33:32.002Z,42.75
2024-05-09T13:35:31.899Z,42.35
2024-05-09T13:37:31.884Z,42.87
2024-05-09T13:39:31.888Z,42.19
2024-05-09T13:41:33.332Z,42.46
2024-05-09T13:43:31.997Z,42.77
2024-05-09T13:45:32.097Z,42.80
2024-05-09T13:47:31.989Z,43.22
2024-05-09T13:49:31.936Z,42.92
2024-05-09T13:51:31.912Z,43.24
2024-05-09T13:53:31.949Z,43.22
2024-05-09T13:55:31.940Z,42.95
2024-05-09T13:57:31.916Z,43.07
2024-05-09T13:59:31.903Z,41.83
2024-05-09T14:01:32.059Z,42.18
2024-05-09T14:03:32.155Z,42.65
2024-05-09T14:05:32.074Z,42.29
2024-05-09T14:07:31.936Z,41.74
2024-05-09T14:09:31.967Z,42.16
2024-05-09T14:11:32.076Z,41.39
2024-05-09T14:13:31.978Z,42.02
2024-05-09T14:15:32.076Z,42.24
2024-05-09T14:17:32.072Z,42.17
2024-05-09T14:19:32.013Z,42.00
2024-05-09T14:21:32.046Z,41.99
2024-05-09T14:23:31.986Z,42.49
2024-05-09T14:25:32.442Z,43.03
2024-05-09T14:27:32.059Z,43.18
2024-05-09T14:29:32.007Z,42.20
2024-05-09T14:31:32.047Z,42.07
2024-05-09T14:33:32.544Z,41.09
2024-05-09T14:35:32.044Z,41.91
2024-05-09T14:37:32.049Z,42.41
2024-05-09T14:39:32.042Z,43.03
2024-05-09T14:41:32.022Z,43.08
2024-05-09T14:43:32.185Z,42.98
2024-05-09T14:45:32.109Z,41.54
2024-05-09T14:47:32.121Z,41.74
2024-05-09T14:49:32.064Z,42.48
2024-05-09T14:51:32.099Z,41.38
2024-05-09T14:54:32.078Z,40.86
2024-05-09T14:56:32.042Z,40.77
2024-05-09T14:58:32.200Z,41.25
2024-05-09T15:00:35.757Z,42.01
2024-05-09T15:02:32.095Z,41.06
2024-05-09T15:04:32.236Z,41.12
2024-05-09T15:06:32.189Z,41.66
2024-05-09T15:08:32.125Z,41.25
2024-05-09T15:10:35.582Z,41.82
2024-05-09T15:12:32.210Z,42.17
2024-05-09T15:14:32.103Z,42.52
2024-05-09T15:16:32.169Z,42.64
2024-05-09T15:18:32.346Z,42.71
2024-05-09T15:20:35.923Z,43.12
2024-05-09T15:22:32.156Z,43.26
2024-05-09T15:24:32.160Z,43.26
2024-05-09T15:26:32.171Z,43.04
2024-05-09T15:28:32.179Z,42.94
2024-05-09T15:30:33.869Z,43.13
2024-05-09T15:32:33.962Z,43.29
2024-05-09T15:34:32.322Z,43.11
2024-05-09T15:36:32.219Z,42.72
2024-05-09T15:38:32.191Z,42.78
2024-05-09T15:40:38.813Z,43.23
2024-05-09T15:42:32.253Z,43.02
2024-05-09T15:44:32.220Z,43.20
2024-05-09T15:47:32.283Z,43.31
2024-05-09T15:49:32.518Z,43.07
2024-05-09T15:51:32.226Z,43.71
2024-05-09T15:53:32.217Z,42.88
2024-05-09T15:55:32.251Z,43.86
2024-05-09T15:57:32.277Z,43.47
2024-05-09T15:59:32.217Z,43.55
2024-05-09T16:01:32.401Z,42.83
2024-05-09T16:03:32.393Z,42.99
2024-05-09T16:06:32.329Z,42.38
2024-05-09T16:08:32.271Z,42.28
2024-05-09T16:10:34.099Z,42.12
2024-05-09T16:12:32.331Z,41.35
2024-05-09T16:14:32.266Z,41.94
2024-05-09T16:16:32.385Z,41.59
2024-05-09T16:18:32.356Z,41.30
2024-05-09T16:21:32.352Z,41.72
2024-05-09T16:23:32.316Z,41.84
2024-05-09T16:25:32.325Z,41.83
2024-05-09T16:27:32.378Z,42.09
2024-05-09T16:29:32.293Z,42.40
2024-05-09T16:31:32.368Z,42.17
2024-05-09T16:33:32.745Z,42.71
2024-05-09T16:35:32.306Z,42.75
2024-05-09T16:38:32.373Z,43.10
2024-05-09T16:41:32.359Z,42.14
2024-05-09T16:43:32.399Z,41.42
2024-05-09T16:46:33.867Z,42.25
2024-05-09T16:48:32.479Z,41.95
2024-05-09T16:50:34.567Z,41.75
2024-05-09T16:52:32.348Z,42.14
2024-05-09T16:54:32.453Z,42.28
2024-05-09T16:56:32.423Z,42.15
2024-05-09T16:59:32.406Z,42.50
2024-05-09T17:01:32.569Z,41.95
2024-05-09T17:03:32.520Z,41.70
2024-05-09T17:05:32.544Z,42.16
2024-05-09T17:07:32.439Z,42.53
2024-05-09T17:09:32.502Z,42.48
2024-05-09T17:11:32.481Z,42.56
2024-05-09T17:13:32.537Z,42.82
2024-05-09T17:15:33.039Z,43.17
2024-05-09T17:18:32.572Z,43.19
2024-05-09T17:20:35.668Z,43.10
2024-05-09T17:22:32.485Z,43.20
2024-05-09T17:24:32.451Z,43.39
2024-05-09T17:26:32.443Z,43.47
2024-05-09T17:28:32.525Z,43.50
2024-05-09T17:30:36.312Z,43.41
2024-05-09T17:32:32.509Z,43.52
2024-05-09T17:34:32.598Z,43.60
2024-05-09T17:36:32.562Z,43.50
2024-05-09T17:38:32.510Z,44.05
2024-05-09T17:40:35.906Z,43.98
2024-05-09T17:42:32.535Z,44.15
2024-05-09T17:44:32.500Z,43.90
2024-05-09T17:46:32.741Z,44.61
2024-05-09T17:48:32.869Z,44.48
2024-05-09T17:50:35.990Z,44.51
2024-05-09T17:52:32.533Z,44.72
2024-05-09T17:54:32.668Z,44.77
2024-05-09T17:56:32.567Z,44.60
2024-05-09T17:58:32.632Z,44.61
2024-05-09T18:02:32.661Z,44.76
2024-05-09T18:04:33.927Z,45.00
2024-05-09T18:07:32.587Z,45.25
2024-05-09T18:09:32.619Z,45.61
2024-05-09T18:11:32.701Z,45.65
2024-05-09T18:13:32.661Z,45.72
2024-05-09T18:15:32.796Z,45.42
2024-05-09T18:17:32.762Z,45.27
2024-05-09T18:19:32.823Z,45.30
2024-05-09T18:21:32.733Z,45.32
2024-05-09T18:23:32.599Z,45.14
2024-05-09T18:25:32.583Z,44.81
2024-05-09T18:27:32.676Z,45.15
2024-05-09T18:29:32.652Z,45.42
2024-05-09T18:32:32.771Z,45.39
2024-05-09T18:34:32.755Z,45.57
2024-05-09T18:36:32.654Z,45.71
2024-05-09T18:38:32.625Z,46.00
2024-05-09T18:42:32.688Z,45.78
2024-05-09T18:44:32.701Z,45.75
2024-05-09T18:46:32.748Z,45.36
2024-05-09T18:48:32.776Z,45.41
2024-05-09T18:50:37.513Z,45.38
2024-05-09T18:52:32.709Z,45.56
2024-05-09T18:54:32.736Z,45.76
2024-05-09T18:56:32.671Z,45.79
2024-05-09T18:58:32.710Z,45.93
2024-05-09T19:00:36.593Z,45.44
2024-05-09T19:02:32.884Z,45.88
2024-05-09T19:04:32.869Z,45.60
2024-05-09T19:06:32.775Z,45.75
2024-05-09T19:08:32.734Z,45.69
2024-05-09T19:10:34.978Z,45.86
2024-05-09T19:12:32.772Z,45.97
2024-05-09T19:15:32.775Z,45.95
2024-05-09T19:17:32.913Z,45.91
2024-05-09T19:19:32.908Z,46.46
2024-05-09T19:21:32.843Z,46.78
2024-05-09T19:23:37.794Z,46.89
2024-05-09T19:25:32.798Z,47.03
2024-05-09T19:28:32.818Z,47.47
2024-05-09T19:30:39.284Z,47.57
2024-05-09T19:32:32.895Z,47.35
2024-05-09T19:34:32.875Z,47.69
2024-05-09T19:36:32.860Z,47.74
2024-05-09T19:38:32.776Z,47.81
2024-05-09T19:40:34.491Z,47.86
2024-05-09T19:42:32.818Z,47.76
2024-05-09T19:44:32.826Z,47.78
2024-05-09T19:46:32.911Z,48.02
2024-05-09T19:48:32.952Z,48.18
2024-05-09T19:50:40.864Z,48.13
2024-05-09T19:51:34.390Z,48.10
2024-05-09T19:53:32.823Z,48.12
2024-05-09T19:55:32.853Z,48.40
2024-05-09T19:57:32.956Z,48.27
2024-05-09T19:59:32.867Z,48.41
2024-05-09T20:01:33.009Z,48.55
2024-05-09T20:04:33.146Z,48.52
2024-05-09T20:06:32.904Z,48.83
2024-05-09T20:08:32.861Z,49.19
2024-05-09T20:10:35.243Z,49.42
2024-05-09T20:12:32.913Z,49.43
2024-05-09T20:14:32.871Z,49.57
2024-05-09T20:17:32.961Z,49.53
2024-05-09T20:19:33.036Z,49.90
2024-05-09T20:21:32.942Z,50.03
2024-05-09T20:23:32.940Z,50.11
2024-05-09T20:25:32.998Z,50.52
2024-05-09T20:27:32.927Z,50.73
2024-05-09T20:29:32.919Z,50.81
2024-05-09T20:31:32.969Z,50.73
2024-05-09T20:33:33.089Z,50.95
2024-05-09T20:35:33.491Z,51.05
2024-05-09T20:37:32.932Z,51.13
2024-05-09T20:39:32.972Z,51.01
2024-05-09T20:42:33.014Z,51.39
2024-05-09T20:44:32.951Z,51.16
2024-05-09T20:46:32.957Z,51.13
2024-05-09T20:49:33.079Z,51.13
2024-05-09T20:51:33.016Z,51.13
2024-05-09T20:53:33.001Z,51.24
2024-05-09T20:55:32.985Z,51.20
2024-05-09T20:57:33.014Z,51.07
2024-05-09T20:59:32.992Z,51.14
2024-05-09T21:01:33.085Z,51.07
2024-05-09T21:03:33.268Z,51.05
2024-05-09T21:05:35.300Z,50.94
2024-05-09T21:07:33.015Z,50.93
2024-05-09T21:09:33.151Z,51.08
2024-05-09T21:11:33.098Z,51.28
2024-05-09T21:15:33.101Z,51.47
2024-05-09T21:17:33.145Z,51.72
2024-05-09T21:19:33.074Z,51.50
2024-05-09T21:21:33.132Z,51.33
2024-05-09T21:23:33.048Z,51.60
2024-05-09T21:26:33.092Z,51.98
2024-05-09T21:29:33.109Z,51.63
2024-05-09T21:32:33.146Z,51.64
2024-05-09T21:34:33.185Z,51.82
2024-05-09T21:36:33.104Z,51.90
2024-05-09T21:38:33.084Z,52.06
2024-05-09T21:40:35.486Z,52.15
2024-05-09T21:42:34.764Z,51.71
2024-05-09T21:44:33.108Z,51.84
2024-05-09T21:46:33.271Z,51.69
2024-05-09T21:48:33.274Z,51.76
2024-05-09T21:50:39.421Z,51.73
2024-05-09T21:52:33.126Z,51.86
2024-05-09T21:55:33.205Z,51.95
2024-05-09T21:57:33.137Z,51.96
2024-05-09T21:59:33.152Z,52.02
2024-05-09T22:02:33.191Z,52.32
2024-05-09T22:04:33.212Z,52.51
2024-05-09T22:06:33.250Z,52.54
2024-05-09T22:08:33.190Z,52.38
2024-05-09T22:10:35.647Z,52.97
2024-05-09T22:12:33.229Z,53.02
2024-05-09T22:14:33.207Z,52.91
2024-05-09T22:16:33.263Z,53.12
2024-05-09T22:18:33.332Z,53.22
2024-05-09T22:20:37.513Z,53.72
2024-05-09T22:22:33.194Z,54.11
2024-05-09T22:24:33.281Z,54.28
2024-05-09T22:26:33.234Z,54.75
2024-05-09T22:28:33.285Z,55.37
2024-05-09T22:30:37.475Z,55.57
2024-05-09T22:32:33.318Z,55.60
2024-05-09T22:34:33.306Z,56.13
2024-05-09T22:36:33.286Z,56.50
2024-05-09T22:40:42.832Z,56.60
2024-05-09T22:41:33.267Z,56.49
2024-05-09T22:44:33.233Z,56.31
2024-05-09T22:46:33.399Z,56.30
2024-05-09T22:49:33.378Z,56.29
2024-05-09T22:51:33.331Z,56.29
2024-05-09T22:53:33.282Z,56.12
2024-05-09T22:55:33.336Z,55.90
2024-05-09T22:57:33.334Z,55.56
2024-05-09T22:59:33.311Z,55.39
2024-05-09T23:01:33.442Z,55.38
2024-05-09T23:03:33.508Z,55.34
2024-05-09T23:05:33.456Z,55.64
2024-05-09T23:07:33.352Z,55.55
2024-05-09T23:09:33.362Z,55.85
2024-05-09T23:11:33.375Z,55.98
2024-05-09T23:13:33.411Z,56.14
2024-05-09T23:15:33.581Z,56.61
2024-05-09T23:17:33.607Z,56.44
2024-05-09T23:19:33.438Z,56.59
2024-05-09T23:22:33.386Z,56.45
2024-05-09T23:24:33.411Z,56.45
2024-05-09T23:27:33.408Z,56.52
2024-05-09T23:29:33.368Z,56.92
2024-05-09T23:31:33.474Z,56.93
2024-05-09T23:33:35.335Z,57.02
2024-05-09T23:35:33.399Z,57.19
2024-05-09T23:37:33.403Z,57.42
2024-05-09T23:39:33.467Z,57.58
2024-05-09T23:41:33.441Z,58.13
2024-05-09T23:43:33.472Z,58.58
2024-05-09T23:45:33.618Z,58.32
2024-05-09T23:47:33.512Z,58.33
2024-05-09T23:49:33.558Z,58.26
2024-05-09T23:51:33.484Z,58.13
2024-05-09T23:53:33.430Z,58.14
2024-05-09T23:55:33.432Z,58.04
2024-05-09T23:57:33.488Z,58.14
2024-05-09T23:59:33.469Z,58.27
